Terminal Aerodrome Forecast
Issued by NWS Pocatello, ID

Home | Current Version | Previous Version | Text Only | Print | Product List | Glossary On
Versions: 1 2 3 4 5 6 7 8 9 10 11 12 13 14 15
000
FTUS45 KPIH 300520
TAFIDA
TAF
KIDA 300520Z 3006/3106 19007KT P6SM BKN110
     FM301500 24015G25KT P6SM SCT060
     FM310300 20007KT P6SM SCT080=

USA.gov is the U.S. government's official web portal to all federal, state and local government web resources and services.